LRSV/SCV METAR and TAF weather

Enter ICAO airport designator
Station Type Date Time Source
LRSV METAR 2019/04/23 04:00 UTC NOAA

LRSV 230400Z 15008KT CAVOK 04/01 Q1025


Station Type Date Time Source
LRSV Decoded METAR 2019/04/23 04:00 UTC NOAA

Suceava / Salcea, Romania (LRSV) 47-39N 026-15E 351M
Apr 23, 2019 - 12:00 AM EDT / 2019.04.23 0400 UTC
Wind: from the SSE (150 degrees) at 9 MPH (8 KT):0
Visibility: greater than 7 mile(s):0
Temperature: 39 F (4 C)
Dew Point: 33 F (1 C)
Relative Humidity: 80%
Pressure (altimeter): 30.27 in. Hg (1025 hPa)
ob: LRSV 230400Z 15008KT CAVOK 04/01 Q1025
cycle: 4

Station Type Date Time Source
LRSV TAF 2014/07/19 18:48 UTC NOAA

TAF LRSV 191800Z 1918/2024 CNL

Example: see airport list